Suttons Bay, MI

6:56 PM EST on December 03, 2016 (GMT -0500)
KMISUTTO2 | | Change Station

Elev 797 ft 45.01 °N, 85.64 °W | Updated 59 seconds ago

Light Rain
Light Rain
33.9 °F
Feels Like 34 °F
N
2.0
Wind Variable Wind from West
Gusts 3.0 mph

Today
High -- | Low -- °F
--% Chance of Precip.
Yesterday
High -- | Low -- °F
Precip. -- in
Pressure 30.28 in
Visibility 10.0 miles
Clouds Scattered Clouds 1000 ft
Overcast 2500 ft
Windchill 34 °F
Dew Point 32 °F
Humidity 93%
Rainfall 0.20 in
Snow Depth Not available.
8:03 AM 5:01 PM
Waxing Crescent, 18% visible
METAR KTVC 032353Z 23003KT 10SM -RA SCT010 OVC025 02/01 A3026 RMK AO2 SLP253 P0000 60009 I6000 T00220006 10050 20022 58002
Pressure 30.28 in
Visibility 10.0 miles
Clouds Scattered Clouds 1000 ft
Overcast 2500 ft
Windchill 34 °F
Dew Point 32 °F
Humidity 93%
Rainfall 0.20 in
Snow Depth Not available.
8:03 AM 5:01 PM
Waxing Crescent, 18% visible
METAR KTVC 032353Z 23003KT 10SM -RA SCT010 OVC025 02/01 A3026 RMK AO2 SLP253 P0000 60009 I6000 T00220006 10050 20022 58002

10-Day Weather Forecast

Almanac

Astronomy

Dec. 03, 2016 Rise Set
Actual Time
Civil Twilight
Nautical Twilight
Astronomical Twilight
Moon
Length of Visible Light
Length of Day
Tomorrow will be .
, % of the Moon is Illuminated

Today's Extremes

State Highs State Lows

Community

WunderPhotos

Upload Photos

1,955,536 photos uploaded!

WunderBlog® & News

Nearby

Air Quality

  Air Quality AQ Index Pollutant
Not available.

Snow Depth

Station Depth Elevation

Earthquake Activity

City Distance Mag. Time & Date
Minimum magnitude displayed is 2.5.

Coastal Water Temperatures

Place Temperature

Stations

Nearby Weather Stations

Station Location Temp. Windchill Dew Point Humidity Wind Precip. Elev Updated Type
                   

Watches & Warnings

There are currently no watches in effect.